Terminal Aerodrome Forecast
Issued by NWS

Home | Current Version | Previous Version | Text Only | Print | Product List | Glossary On
Versions: 1 2 3 4 5 6 7 8 9 10 11 12 13 14 15 16 17 18 19 20 21
865
FTUS43 KDVN 212331
TAFBRL
TAF
KBRL 212331Z 2200/2224 10010KT P6SM OVC050
     FM220400 12010KT 5SM -RA BR OVC025
     FM221000 16009KT 4SM BR SCT025 BKN090
     FM221300 19013KT P6SM BKN015
     FM221600 18014KT P6SM BKN035
     FM222000 19006KT 5SM -RA BR OVC015=

USA.gov is the U.S. government's official web portal to all federal, state and local government web resources and services.